Ana Sayfa
METAR-TAF:

METAR-TAF

Havaalanları :

Big Spring McMahon-Wrinkle Airport

Big Spring, Teksas, Amerika Birleşik Devletleri

Enlem: 32-12N, Boylam: 101-31W, yükseklik: 784 m

Güncel hava durumu gözlemi

Rapor saat 05:55 UTC de 13 dakika önce yapıldı.
Rüzgar güney/güneydoğudan 12 kt
Sıcaklık 26°C
Nem 24%
Basınç 1013 hPa
Görüş mesafesi: 16.1 km
Açık gökyüzü

METAR: KBPG 190555Z AUTO 16012KT 10SM CLR 26/04 A2990 RMK AO2 T02600043 10358 20252

Saat: 01:08 (06:08 UTC)


TAF: eksik

4.000'den fazla havaalanı için hava durumu gözlemleri ve tahminleri (METAR ve TAF raporları).

Kullanılabilir istasyonlar harita üzerinde sarı ve kırmızı noktalarla gösterilir.

İstasyonun adını görmek için fareyi noktanın üzerinde gezdirin.

Sonrasında hava gözlem ve tahminlerini görmek için tıklayın.

Haritayı değiştirmek için: yaklaştırmak için siyah artı işaretli yeşil düğmeye ve uzaklaştırmak için de eksi işaretli düğmeye hızla tıklayın; bitişik haritalar için yeşil okları kullanın.


METAR-TAF: